createdAt,value
2022-12-04T00:00:20.243Z,99550.41
2022-12-04T00:03:38.493Z,99548.45
2022-12-04T00:06:58.688Z,99546.48
2022-12-04T00:10:14.853Z,99542.09
2022-12-04T00:13:31.217Z,99548.24
2022-12-04T00:16:48.261Z,99547.59
2022-12-04T00:20:05.026Z,99537.08
2022-12-04T00:23:21.692Z,99546.48
2022-12-04T00:26:38.675Z,99545.56
2022-12-04T00:29:55.443Z,99539.48
2022-12-04T00:33:12.130Z,99539.48
2022-12-04T00:36:31.407Z,99530.63
2022-12-04T00:39:47.618Z,99541.91
2022-12-04T00:43:04.111Z,99544.05
2022-12-04T00:46:22.368Z,99532.30
2022-12-04T00:49:38.714Z,99531.02
2022-12-04T00:52:55.224Z,99531.88
2022-12-04T00:56:18.819Z,99532.42
2022-12-04T00:59:35.636Z,99526.07
2022-12-04T01:02:53.176Z,99517.24
2022-12-04T01:06:10.235Z,99519.47
2022-12-04T01:09:26.670Z,99509.85
2022-12-04T01:12:43.129Z,99509.85
2022-12-04T01:15:59.964Z,99508.00
2022-12-04T01:19:19.004Z,99500.06
2022-12-04T01:22:35.396Z,99496.98
2022-12-04T01:26:00.479Z,99492.63
2022-12-04T01:29:17.130Z,99487.13
2022-12-04T01:32:34.032Z,99483.55
2022-12-04T01:35:50.615Z,99479.83
2022-12-04T01:39:07.052Z,99490.91
2022-12-04T01:42:24.238Z,99483.38
2022-12-04T01:45:58.239Z,99486.80
2022-12-04T01:49:17.119Z,99490.12
2022-12-04T01:52:34.557Z,99481.80
2022-12-04T01:55:51.983Z,99470.32
2022-12-04T01:59:10.479Z,99476.29
2022-12-04T02:02:32.333Z,99476.36
2022-12-04T02:05:48.807Z,99479.62
2022-12-04T02:09:05.600Z,99467.50
2022-12-04T02:12:29.280Z,99471.79
2022-12-04T02:15:53.878Z,99471.93
2022-12-04T02:19:17.059Z,99468.75
2022-12-04T02:22:44.803Z,99471.25
2022-12-04T02:26:10.155Z,99460.06
2022-12-04T02:29:42.489Z,99470.50
2022-12-04T02:33:03.999Z,99472.64
2022-12-04T02:36:24.601Z,99469.92
2022-12-04T02:39:45.566Z,99475.69
2022-12-04T02:43:05.962Z,99474.64
2022-12-04T02:46:27.827Z,99464.02
2022-12-04T02:49:49.504Z,99469.03
2022-12-04T02:53:11.330Z,99467.98
2022-12-04T02:56:32.438Z,99473.02
2022-12-04T02:59:53.237Z,99475.63
2022-12-04T03:03:14.635Z,99478.85
2022-12-04T03:06:34.046Z,99472.92
2022-12-04T03:09:56.856Z,99470.20
2022-12-04T03:13:18.023Z,99482.31
2022-12-04T03:16:38.820Z,99476.80
2022-12-04T03:20:00.811Z,99477.52
2022-12-04T03:23:22.584Z,99480.05
2022-12-04T03:26:43.647Z,99476.48
2022-12-04T03:30:05.217Z,99477.12
2022-12-04T03:33:26.331Z,99477.86
2022-12-04T03:36:48.930Z,99485.70
2022-12-04T03:40:10.198Z,99485.70
2022-12-04T03:43:32.440Z,99479.33
2022-12-04T03:46:54.469Z,99475.03
2022-12-04T03:50:19.498Z,99478.28
2022-12-04T03:53:42.274Z,99478.20
2022-12-04T03:57:03.048Z,99476.52
2022-12-04T04:00:24.401Z,99477.56
2022-12-04T04:03:44.304Z,99481.11
2022-12-04T04:07:05.156Z,99473.38
2022-12-04T04:10:25.963Z,99476.94
2022-12-04T04:14:02.185Z,99472.53
2022-12-04T04:17:39.055Z,99474.43
2022-12-04T04:21:14.377Z,99480.05
2022-12-04T04:24:38.187Z,99486.50
2022-12-04T04:28:02.611Z,99484.82
2022-12-04T04:31:25.784Z,99488.47
2022-12-04T04:34:48.924Z,99478.96
2022-12-04T04:38:10.471Z,99478.85
2022-12-04T04:41:31.149Z,99470.02
2022-12-04T04:44:53.347Z,99467.30
2022-12-04T04:48:14.210Z,99464.28
2022-12-04T04:51:31.471Z,99464.28
2022-12-04T04:54:49.427Z,99458.84
2022-12-04T04:58:16.821Z,99465.63
2022-12-04T05:01:35.569Z,99465.73
2022-12-04T05:04:51.898Z,99472.64
2022-12-04T05:08:08.319Z,99474.32
2022-12-04T05:11:25.092Z,99476.00
2022-12-04T05:14:41.337Z,99477.56
2022-12-04T05:17:57.429Z,99475.03
2022-12-04T05:21:21.357Z,99466.38
2022-12-04T05:24:37.861Z,99474.95
2022-12-04T05:27:54.257Z,99472.42
2022-12-04T05:31:12.271Z,99471.48
2022-12-04T05:34:28.577Z,99477.45
2022-12-04T05:37:48.240Z,99478.39
2022-12-04T05:41:02.776Z,99479.33
2022-12-04T05:44:18.949Z,99472.02
2022-12-04T05:47:35.279Z,99472.13
2022-12-04T05:50:52.373Z,99474.84
2022-12-04T05:54:10.063Z,99482.57
2022-12-04T05:57:29.789Z,99482.38
2022-12-04T06:00:45.274Z,99482.47
2022-12-04T06:04:01.903Z,99486.12
2022-12-04T06:07:19.652Z,99483.31
2022-12-04T06:10:36.598Z,99486.64
2022-12-04T06:13:54.855Z,99488.43
2022-12-04T06:17:11.556Z,99490.94
2022-12-04T06:20:28.281Z,99491.05
2022-12-04T06:23:44.726Z,99496.38
2022-12-04T06:27:26.893Z,99489.66
2022-12-04T06:30:24.431Z,99498.06
2022-12-04T06:33:43.103Z,99498.06
2022-12-04T06:37:01.391Z,99496.16
2022-12-04T06:40:19.542Z,99500.03
2022-12-04T06:43:35.913Z,99493.77
2022-12-04T06:46:54.840Z,99492.61
2022-12-04T06:50:12.268Z,99484.78
2022-12-04T06:53:30.613Z,99479.55
2022-12-04T06:56:46.805Z,99489.26
2022-12-04T07:00:03.773Z,99485.70
2022-12-04T07:03:20.383Z,99483.95
2022-12-04T07:06:40.141Z,99483.84
2022-12-04T07:09:58.707Z,99482.91
2022-12-04T07:13:19.414Z,99481.02
2022-12-04T07:16:40.864Z,99483.63
2022-12-04T07:19:57.439Z,99477.23
2022-12-04T07:23:22.819Z,99476.75
2022-12-04T07:26:40.454Z,99481.11
2022-12-04T07:29:58.955Z,99479.37
2022-12-04T07:33:18.885Z,99477.47
2022-12-04T07:36:36.231Z,99480.83
2022-12-04T07:39:53.899Z,99478.21
2022-12-04T07:43:12.463Z,99472.05
2022-12-04T07:46:33.768Z,99473.51
2022-12-04T07:49:52.871Z,99471.64
2022-12-04T07:53:09.761Z,99477.80
2022-12-04T07:56:27.347Z,99468.81
2022-12-04T07:59:44.257Z,99464.52
2022-12-04T08:03:01.290Z,99464.63
2022-12-04T08:06:18.592Z,99467.24
2022-12-04T08:09:35.880Z,99472.28
2022-12-04T08:12:54.992Z,99468.61
2022-12-04T08:16:25.166Z,99464.44
2022-12-04T08:19:41.959Z,99471.31
2022-12-04T08:23:09.725Z,99475.83
2022-12-04T08:26:38.656Z,99478.55
2022-12-04T08:29:59.658Z,99474.14
2022-12-04T08:42:37.003Z,99492.35
2022-12-04T08:46:08.674Z,99493.36
2022-12-04T08:49:28.019Z,99490.45
2022-12-04T08:52:53.681Z,99490.56
2022-12-04T08:56:29.702Z,99495.98
2022-12-04T08:59:54.560Z,99492.23
2022-12-04T09:04:37.633Z,99499.14
2022-12-04T09:08:14.368Z,99489.21
2022-12-04T09:11:45.532Z,99490.03
2022-12-04T09:15:03.625Z,99490.66
2022-12-04T09:18:46.844Z,99499.25
2022-12-04T09:22:05.407Z,99490.78
2022-12-04T09:25:24.089Z,99500.81
2022-12-04T09:28:42.067Z,99483.97
2022-12-04T09:32:01.413Z,99483.66
2022-12-04T09:35:19.780Z,99484.92
2022-12-04T09:38:39.524Z,99476.02
2022-12-04T09:42:27.945Z,99473.06
2022-12-04T09:45:51.261Z,99473.49
2022-12-04T09:49:16.971Z,99461.13
2022-12-04T09:52:45.208Z,99466.16
2022-12-04T09:56:07.446Z,99473.69
2022-12-04T09:59:28.561Z,99469.91
2022-12-04T10:02:50.612Z,99457.77
2022-12-04T10:06:17.536Z,99445.93
2022-12-04T10:09:40.897Z,99445.93
2022-12-04T10:13:04.793Z,99446.43
2022-12-04T10:16:29.484Z,99430.53
2022-12-04T10:19:52.364Z,99425.06
2022-12-04T10:23:17.120Z,99417.09
2022-12-04T10:26:39.178Z,99413.54
2022-12-04T10:30:01.848Z,99395.52
2022-12-04T10:33:28.934Z,99402.06
2022-12-04T10:36:48.266Z,99409.91
2022-12-04T10:40:11.014Z,99407.34
2022-12-04T10:43:33.840Z,99402.52
2022-12-04T10:46:51.277Z,99400.59
2022-12-04T10:50:14.752Z,99395.27
2022-12-04T10:53:41.061Z,99391.13
2022-12-04T10:57:08.028Z,99397.34
2022-12-04T11:00:41.377Z,99397.83
2022-12-04T11:04:08.689Z,99387.23
2022-12-04T11:07:30.459Z,99391.19
2022-12-04T11:10:49.407Z,99385.36
2022-12-04T11:14:19.189Z,99384.17
2022-12-04T11:17:39.015Z,99372.06
2022-12-04T11:21:04.460Z,99371.69
2022-12-04T11:24:35.971Z,99368.38
2022-12-04T11:27:59.162Z,99368.24
2022-12-04T11:31:30.080Z,99370.26
2022-12-04T11:34:52.878Z,99356.19
2022-12-04T11:38:33.137Z,99363.58
2022-12-04T11:41:54.726Z,99367.16
2022-12-04T11:45:30.493Z,99367.83
2022-12-04T11:49:37.389Z,99362.58
2022-12-04T11:53:13.835Z,99355.13
2022-12-04T11:56:44.864Z,99362.01
2022-12-04T12:00:31.318Z,99364.95
2022-12-04T12:04:04.750Z,99355.86
2022-12-04T12:07:44.403Z,99371.23
2022-12-04T12:11:08.198Z,99365.62
2022-12-04T12:14:31.068Z,99375.03
2022-12-04T12:17:53.609Z,99368.56
2022-12-04T12:21:15.356Z,99367.37
2022-12-04T12:24:42.823Z,99373.44
2022-12-04T12:28:19.152Z,99365.19
2022-12-04T12:32:13.250Z,99363.83
2022-12-04T12:35:35.111Z,99359.29
2022-12-04T12:38:56.312Z,99353.08
2022-12-04T12:42:15.325Z,99355.44
2022-12-04T12:45:36.778Z,99350.05
2022-12-04T12:49:00.748Z,99348.00
2022-12-04T12:52:23.308Z,99349.53
2022-12-04T12:55:44.868Z,99347.62
2022-12-04T12:59:05.395Z,99347.38
2022-12-04T13:02:33.494Z,99341.03
2022-12-04T13:05:57.584Z,99339.08
2022-12-04T13:09:26.246Z,99341.47
2022-12-04T13:12:47.885Z,99344.09
2022-12-04T13:16:09.478Z,99351.13
2022-12-04T13:19:37.244Z,99352.94
2022-12-04T13:23:05.678Z,99345.19
2022-12-04T13:26:29.176Z,99340.17
2022-12-04T13:30:00.930Z,99347.62
2022-12-04T13:34:00.464Z,99352.30
2022-12-04T13:37:36.316Z,99352.23
2022-12-04T13:40:56.376Z,99369.48
2022-12-04T13:44:19.738Z,99364.61
2022-12-04T13:47:42.354Z,99368.56
2022-12-04T13:51:12.027Z,99366.70
2022-12-04T13:54:47.454Z,99369.97
2022-12-04T13:58:09.785Z,99368.53
2022-12-04T14:06:09.583Z,99361.78
2022-12-04T14:09:36.439Z,99370.88
2022-12-04T14:12:58.853Z,99361.69
2022-12-04T14:16:26.971Z,99367.23
2022-12-04T14:19:47.372Z,99370.22
2022-12-04T14:23:15.137Z,99368.09
2022-12-04T14:27:09.524Z,99356.54
2022-12-04T14:30:02.652Z,99367.98
2022-12-04T14:36:39.059Z,99358.81
2022-12-04T14:39:57.422Z,99360.88
2022-12-04T14:43:20.501Z,99370.98
2022-12-04T14:46:55.063Z,99372.53
2022-12-04T14:53:39.505Z,99375.16
2022-12-04T14:57:08.729Z,99374.09
2022-12-04T15:00:29.741Z,99376.45
2022-12-04T15:03:56.895Z,99363.72
2022-12-04T15:07:24.281Z,99375.61
2022-12-04T15:11:12.801Z,99370.59
2022-12-04T15:14:31.316Z,99370.11
2022-12-04T15:21:07.640Z,99367.72
2022-12-04T15:24:29.812Z,99367.11
2022-12-04T15:27:52.418Z,99363.88
2022-12-04T15:31:12.181Z,99372.89
2022-12-04T15:37:46.225Z,99381.23
2022-12-04T15:41:22.721Z,99380.84
2022-12-04T15:44:42.799Z,99373.56
2022-12-04T15:51:16.665Z,99388.16
2022-12-04T15:54:34.548Z,99393.27
2022-12-04T15:57:58.480Z,99403.48
2022-12-04T16:01:17.928Z,99407.74
2022-12-04T16:08:00.639Z,99391.78
2022-12-04T16:11:36.505Z,99400.90
2022-12-04T16:15:02.692Z,99395.16
2022-12-04T16:21:57.322Z,99397.78
2022-12-04T16:25:17.289Z,99399.58
2022-12-04T16:28:34.053Z,99392.79
2022-12-04T16:31:50.723Z,99390.49
2022-12-04T16:35:07.824Z,99394.25
2022-12-04T16:38:27.327Z,99398.78
2022-12-04T16:41:48.094Z,99410.18
2022-12-04T16:45:06.340Z,99402.45
2022-12-04T16:51:38.752Z,99395.55
2022-12-04T16:54:58.328Z,99396.60
2022-12-04T16:58:14.369Z,99405.00
2022-12-04T17:01:37.144Z,99394.73
2022-12-04T17:04:58.347Z,99395.05
2022-12-04T17:08:18.157Z,99395.79
2022-12-04T17:11:34.753Z,99391.73
2022-12-04T17:14:56.215Z,99399.58
2022-12-04T17:23:05.322Z,99405.23
2022-12-04T17:26:23.350Z,99410.34
2022-12-04T17:29:39.660Z,99405.55
2022-12-04T17:32:56.199Z,99401.48
2022-12-04T17:39:29.118Z,99403.59
2022-12-04T17:42:46.825Z,99400.13
2022-12-04T17:46:04.736Z,99401.17
2022-12-04T17:49:22.355Z,99392.52
2022-12-04T17:52:40.486Z,99406.71
2022-12-04T17:55:57.412Z,99415.29
2022-12-04T17:59:14.780Z,99411.86
2022-12-04T18:02:31.725Z,99413.10
2022-12-04T18:05:48.633Z,99408.73
2022-12-04T18:09:08.077Z,99408.73
2022-12-04T18:12:24.652Z,99406.00
2022-12-04T18:15:42.589Z,99401.60
2022-12-04T18:22:18.635Z,99402.45
2022-12-04T18:25:35.091Z,99403.28
2022-12-04T18:29:13.261Z,99406.00
2022-12-04T18:32:34.192Z,99397.42
2022-12-04T18:39:16.955Z,99405.06
2022-12-04T18:42:51.193Z,99406.71
2022-12-04T18:46:18.285Z,99399.84
2022-12-04T18:53:11.234Z,99398.45
2022-12-04T18:56:34.508Z,99390.61
2022-12-04T18:59:57.512Z,99394.08
2022-12-04T19:03:21.558Z,99394.08
2022-12-04T19:10:14.526Z,99401.17
2022-12-04T19:13:18.184Z,99407.34
2022-12-04T19:16:40.235Z,99406.29
2022-12-04T19:19:58.075Z,99418.22
2022-12-04T19:23:17.512Z,99423.77
2022-12-04T19:26:35.929Z,99405.47
2022-12-04T19:29:55.554Z,99420.09
2022-12-04T19:33:28.675Z,99417.59
2022-12-04T19:36:50.071Z,99410.80
2022-12-04T19:40:07.006Z,99408.28
2022-12-04T19:43:23.609Z,99404.21
2022-12-04T19:46:41.367Z,99403.28
2022-12-04T19:53:14.995Z,99397.83
2022-12-04T19:56:36.009Z,99392.70
2022-12-04T19:59:53.300Z,99402.45
2022-12-04T20:03:09.662Z,99413.73
2022-12-04T20:09:46.060Z,99416.03
2022-12-04T20:13:01.560Z,99415.09
2022-12-04T20:16:22.194Z,99420.21
2022-12-04T20:19:38.810Z,99419.36
2022-12-04T20:22:55.932Z,99422.70
2022-12-04T20:26:17.061Z,99420.84
2022-12-04T20:29:35.015Z,99416.44
2022-12-04T20:32:51.642Z,99417.37
2022-12-04T20:39:27.137Z,99404.81
2022-12-04T20:42:44.109Z,99404.81
2022-12-04T20:46:02.055Z,99403.25
2022-12-04T20:54:26.175Z,99404.53
2022-12-04T20:57:44.694Z,99388.11
2022-12-04T21:01:04.234Z,99389.78
2022-12-04T21:09:16.581Z,99397.39
2022-12-04T21:12:47.492Z,99400.23
2022-12-04T21:16:08.103Z,99405.34
2022-12-04T21:24:22.994Z,99397.83
2022-12-04T21:27:40.312Z,99404.72
2022-12-04T21:30:58.032Z,99397.83
2022-12-04T21:34:20.812Z,99403.05
2022-12-04T21:40:55.128Z,99401.41
2022-12-04T21:44:14.261Z,99397.83
2022-12-04T21:47:32.053Z,99396.17
2022-12-04T21:50:48.389Z,99391.14
2022-12-04T21:54:04.523Z,99388.34
2022-12-04T21:57:20.956Z,99388.53
2022-12-04T22:00:37.173Z,99388.22
2022-12-04T22:03:53.803Z,99388.84
2022-12-04T22:07:11.282Z,99392.52
2022-12-04T22:10:28.320Z,99392.39
2022-12-04T22:13:46.017Z,99390.52
2022-12-04T22:17:04.659Z,99397.63
2022-12-04T22:20:21.404Z,99400.13
2022-12-04T22:23:40.510Z,99394.27
2022-12-04T22:26:56.822Z,99387.17
2022-12-04T22:30:16.879Z,99399.41
2022-12-04T22:33:33.845Z,99400.23
2022-12-04T22:36:50.449Z,99400.44
2022-12-04T22:40:06.578Z,99384.75
2022-12-04T22:43:22.785Z,99389.98
2022-12-04T22:46:39.221Z,99385.09
2022-12-04T22:49:55.965Z,99388.42
2022-12-04T22:57:26.316Z,99393.45
2022-12-04T23:00:42.547Z,99398.89
2022-12-04T23:03:59.427Z,99386.25
2022-12-04T23:10:30.975Z,99384.89
2022-12-04T23:13:48.455Z,99383.11
2022-12-04T23:17:05.196Z,99370.67
2022-12-04T23:20:22.764Z,99383.02
2022-12-04T23:23:39.866Z,99382.80
2022-12-04T23:26:56.738Z,99378.73
2022-12-04T23:30:21.375Z,99372.14
2022-12-04T23:33:35.902Z,99369.64
2022-12-04T23:36:51.999Z,99376.73
2022-12-04T23:40:08.848Z,99360.55
2022-12-04T23:43:25.417Z,99371.73
2022-12-04T23:46:42.424Z,99377.16
2022-12-04T23:50:01.093Z,99387.61
2022-12-04T23:56:34.594Z,99368.92
2022-12-04T23:59:50.939Z,99367.75
